sensor_id;sensor_type;location;lat;lon;timestamp;pressure;altitude;pressure_sealevel;temperature;humidity
63665;BME280;49820;33.966;73.390;2023-08-01T02:52:25;78300.25;;;25.17;100.00
63665;BME280;49820;33.966;73.390;2023-08-01T02:54:56;78303.50;;;25.54;100.00
63665;BME280;49820;33.966;73.390;2023-08-01T02:57:26;78294.50;;;25.72;100.00
63665;BME280;49820;33.966;73.390;2023-08-01T02:59:58;78302.72;;;25.81;100.00
63665;BME280;49820;33.966;73.390;2023-08-01T03:02:28;78305.59;;;25.88;100.00
63665;BME280;49820;33.966;73.390;2023-08-01T03:04:57;78301.09;;;25.93;100.00
63665;BME280;49820;33.966;73.390;2023-08-01T03:07:27;78313.50;;;26.26;100.00
63665;BME280;49820;33.966;73.390;2023-08-01T03:09:56;78307.94;;;26.52;100.00
63665;BME280;49820;33.966;73.390;2023-08-01T03:12:28;78301.63;;;26.62;100.00
63665;BME280;49820;33.966;73.390;2023-08-01T03:14:57;78297.16;;;26.50;90.13
63665;BME280;49820;33.966;73.390;2023-08-01T03:17:26;78311.59;;;26.74;83.49
63665;BME280;49820;33.966;73.390;2023-08-01T03:19:56;78303.00;;;26.87;93.74
63665;BME280;49820;33.966;73.390;2023-08-01T03:22:25;78318.78;;;26.86;73.70
63665;BME280;49820;33.966;73.390;2023-08-01T03:24:53;78318.81;;;26.78;73.22
63665;BME280;49820;33.966;73.390;2023-08-01T03:27:23;78315.41;;;26.86;66.53
63665;BME280;49820;33.966;73.390;2023-08-01T03:29:52;78308.97;;;26.81;71.88
63665;BME280;49820;33.966;73.390;2023-08-01T03:32:21;78304.44;;;26.94;66.26
63665;BME280;49820;33.966;73.390;2023-08-01T03:34:50;78310.63;;;26.69;67.88
63665;BME280;49820;33.966;73.390;2023-08-01T03:37:21;78309.19;;;26.62;69.84
63665;BME280;49820;33.966;73.390;2023-08-01T03:39:50;78314.72;;;26.44;66.62
63665;BME280;49820;33.966;73.390;2023-08-01T03:42:19;78319.13;;;26.91;78.81
63665;BME280;49820;33.966;73.390;2023-08-01T03:44:49;78320.06;;;26.96;71.06
63665;BME280;49820;33.966;73.390;2023-08-01T03:47:18;78309.66;;;26.73;65.63
63665;BME280;49820;33.966;73.390;2023-08-01T03:49:47;78317.03;;;26.83;65.15
63665;BME280;49820;33.966;73.390;2023-08-01T03:52:16;78308.16;;;26.24;72.93
63665;BME280;49820;33.966;73.390;2023-08-01T03:54:46;78322.81;;;26.12;71.29
63665;BME280;49820;33.966;73.390;2023-08-01T03:57:15;78295.66;;;26.59;73.44
63665;BME280;49820;33.966;73.390;2023-08-01T03:59:44;78304.41;;;27.03;86.50
63665;BME280;49820;33.966;73.390;2023-08-01T04:02:13;78320.56;;;27.63;88.08
63665;BME280;49820;33.966;73.390;2023-08-01T04:04:43;78318.00;;;27.85;71.17
63665;BME280;49820;33.966;73.390;2023-08-01T04:07:11;78320.47;;;28.28;69.85
63665;BME280;49820;33.966;73.390;2023-08-01T04:09:40;78310.94;;;28.27;66.49
63665;BME280;49820;33.966;73.390;2023-08-01T04:12:09;78297.44;;;27.93;76.00
63665;BME280;49820;33.966;73.390;2023-08-01T04:14:38;78326.88;;;27.62;69.52
63665;BME280;49820;33.966;73.390;2023-08-01T04:17:07;78309.19;;;28.00;80.34
63665;BME280;49820;33.966;73.390;2023-08-01T04:19:36;78320.22;;;27.91;73.48
63665;BME280;49820;33.966;73.390;2023-08-01T04:22:06;78318.16;;;27.59;67.72
63665;BME280;49820;33.966;73.390;2023-08-01T04:24:34;78333.75;;;28.41;72.68
63665;BME280;49820;33.966;73.390;2023-08-01T04:27:04;78317.91;;;28.41;77.54
63665;BME280;49820;33.966;73.390;2023-08-01T04:29:32;78310.53;;;28.70;64.55
63665;BME280;49820;33.966;73.390;2023-08-01T04:32:01;78327.69;;;28.08;65.34
63665;BME280;49820;33.966;73.390;2023-08-01T04:34:30;78331.09;;;27.85;65.93
63665;BME280;49820;33.966;73.390;2023-08-01T04:36:59;78329.25;;;27.33;66.16
63665;BME280;49820;33.966;73.390;2023-08-01T04:39:30;78326.94;;;27.12;68.71
63665;BME280;49820;33.966;73.390;2023-08-01T04:42:00;78339.69;;;26.57;71.61
63665;BME280;49820;33.966;73.390;2023-08-01T04:44:28;78326.59;;;26.67;72.87
63665;BME280;49820;33.966;73.390;2023-08-01T04:46:58;78336.81;;;27.01;71.54
63665;BME280;49820;33.966;73.390;2023-08-01T04:49:27;78308.47;;;27.28;68.85
63665;BME280;49820;33.966;73.390;2023-08-01T04:51:56;78316.91;;;27.17;69.35
63665;BME280;49820;33.966;73.390;2023-08-01T04:54:25;78331.94;;;26.60;72.29
63665;BME280;49820;33.966;73.390;2023-08-01T04:56:54;78337.13;;;26.38;73.50
63665;BME280;49820;33.966;73.390;2023-08-01T04:59:23;78330.78;;;27.24;73.94
63665;BME280;49820;33.966;73.390;2023-08-01T05:01:52;78334.31;;;27.22;75.63
63665;BME280;49820;33.966;73.390;2023-08-01T05:04:24;78350.56;;;27.65;70.97
63665;BME280;49820;33.966;73.390;2023-08-01T05:06:54;78329.44;;;28.12;76.05
63665;BME280;49820;33.966;73.390;2023-08-01T05:09:22;78355.69;;;28.50;68.36
63665;BME280;49820;33.966;73.390;2023-08-01T05:11:51;78360.22;;;28.68;71.12
63665;BME280;49820;33.966;73.390;2023-08-01T05:14:20;78345.22;;;28.43;65.70
63665;BME280;49820;33.966;73.390;2023-08-01T05:16:49;78345.34;;;28.26;73.95
63665;BME280;49820;33.966;73.390;2023-08-01T05:19:18;78337.59;;;28.29;67.22
63665;BME280;49820;33.966;73.390;2023-08-01T05:21:47;78339.75;;;28.20;82.98
63665;BME280;49820;33.966;73.390;2023-08-01T05:24:17;78351.59;;;28.09;71.86
63665;BME280;49820;33.966;73.390;2023-08-01T05:26:46;78351.72;;;28.16;68.76
63665;BME280;49820;33.966;73.390;2023-08-01T05:29:15;78338.00;;;28.16;67.92
63665;BME280;49820;33.966;73.390;2023-08-01T05:31:44;78348.91;;;28.01;70.47
63665;BME280;49820;33.966;73.390;2023-08-01T05:34:13;78349.53;;;27.54;68.92
63665;BME280;49820;33.966;73.390;2023-08-01T05:36:44;78347.25;;;27.15;73.01
63665;BME280;49820;33.966;73.390;2023-08-01T05:39:14;78327.81;;;27.67;75.48
63665;BME280;49820;33.966;73.390;2023-08-01T05:41:43;78323.06;;;27.74;74.18
63665;BME280;49820;33.966;73.390;2023-08-01T05:44:12;78342.44;;;28.28;71.14
63665;BME280;49820;33.966;73.390;2023-08-01T05:46:41;78342.66;;;27.70;69.96
63665;BME280;49820;33.966;73.390;2023-08-01T05:49:10;78335.44;;;27.25;72.80
63665;BME280;49820;33.966;73.390;2023-08-01T05:51:39;78336.88;;;28.13;76.75
63665;BME280;49820;33.966;73.390;2023-08-01T05:54:10;78341.03;;;27.97;72.49
63665;BME280;49820;33.966;73.390;2023-08-01T05:56:39;78344.06;;;28.25;72.32
63665;BME280;49820;33.966;73.390;2023-08-01T05:59:09;78356.47;;;28.33;72.13
63665;BME280;49820;33.966;73.390;2023-08-01T06:01:38;78336.72;;;28.93;73.44
63665;BME280;49820;33.966;73.390;2023-08-01T06:04:07;78344.81;;;28.71;67.51
63665;BME280;49820;33.966;73.390;2023-08-01T06:06:36;78340.09;;;29.24;70.17
63665;BME280;49820;33.966;73.390;2023-08-01T06:09:06;78350.31;;;28.32;70.26
63665;BME280;49820;33.966;73.390;2023-08-01T06:11:35;78341.06;;;28.75;71.54
63665;BME280;49820;33.966;73.390;2023-08-01T06:14:04;78325.81;;;29.45;70.23
63665;BME280;49820;33.966;73.390;2023-08-01T06:16:32;78345.22;;;29.74;63.43
63665;BME280;49820;33.966;73.390;2023-08-01T06:19:02;78347.44;;;30.17;68.65
63665;BME280;49820;33.966;73.390;2023-08-01T06:21:32;78357.00;;;30.40;64.23
63665;BME280;49820;33.966;73.390;2023-08-01T06:24:02;78344.78;;;30.08;64.42
63665;BME280;49820;33.966;73.390;2023-08-01T06:26:31;78324.88;;;30.95;63.89
63665;BME280;49820;33.966;73.390;2023-08-01T06:29:01;78349.03;;;31.16;62.38
63665;BME280;49820;33.966;73.390;2023-08-01T06:31:31;78331.75;;;30.15;60.73
63665;BME280;49820;33.966;73.390;2023-08-01T06:34:00;78338.22;;;29.90;64.99
63665;BME280;49820;33.966;73.390;2023-08-01T06:36:29;78333.34;;;29.90;62.78
63665;BME280;49820;33.966;73.390;2023-08-01T06:38:58;78334.69;;;30.35;67.05
63665;BME280;49820;33.966;73.390;2023-08-01T06:41:27;78312.59;;;29.09;66.04
63665;BME280;49820;33.966;73.390;2023-08-01T06:43:56;78353.13;;;29.63;62.86
63665;BME280;49820;33.966;73.390;2023-08-01T06:46:27;78313.47;;;28.53;70.35
63665;BME280;49820;33.966;73.390;2023-08-01T06:48:57;78354.91;;;30.03;62.11
63665;BME280;49820;33.966;73.390;2023-08-01T06:51:26;78353.94;;;30.50;60.95
63665;BME280;49820;33.966;73.390;2023-08-01T06:53:55;78346.75;;;30.75;65.68
63665;BME280;49820;33.966;73.390;2023-08-01T06:56:26;78326.28;;;30.44;58.72
63665;BME280;49820;33.966;73.390;2023-08-01T06:59:06;78343.69;;;31.36;73.03
63665;BME280;49820;33.966;73.390;2023-08-01T07:01:56;78326.81;;;29.42;61.43
63665;BME280;49820;33.966;73.390;2023-08-01T07:04:25;78314.78;;;29.45;60.81
63665;BME280;49820;33.966;73.390;2023-08-01T07:06:58;78335.06;;;29.27;68.60
63665;BME280;49820;33.966;73.390;2023-08-01T07:09:27;78337.56;;;29.37;63.80
63665;BME280;49820;33.966;73.390;2023-08-01T07:11:57;78351.28;;;29.68;60.97
63665;BME280;49820;33.966;73.390;2023-08-01T07:14:25;78354.56;;;29.77;65.96
63665;BME280;49820;33.966;73.390;2023-08-01T07:16:54;78328.91;;;28.96;67.32
63665;BME280;49820;33.966;73.390;2023-08-01T07:19:24;78337.22;;;31.24;64.23
63665;BME280;49820;33.966;73.390;2023-08-01T07:21:54;78346.88;;;30.23;68.51
63665;BME280;49820;33.966;73.390;2023-08-01T07:24:25;78351.13;;;29.24;65.68
63665;BME280;49820;33.966;73.390;2023-08-01T07:26:56;78340.09;;;29.54;65.38
63665;BME280;49820;33.966;73.390;2023-08-01T07:29:34;78342.34;;;29.98;60.93
63665;BME280;49820;33.966;73.390;2023-08-01T07:32:04;78346.06;;;30.09;63.39
63665;BME280;49820;33.966;73.390;2023-08-01T07:34:33;78326.88;;;28.88;68.13
63665;BME280;49820;33.966;73.390;2023-08-01T07:37:02;78336.16;;;27.97;71.56
63665;BME280;49820;33.966;73.390;2023-08-01T07:39:31;78327.16;;;28.14;75.06
63665;BME280;49820;33.966;73.390;2023-08-01T07:42:00;78325.59;;;28.87;67.77
63665;BME280;49820;33.966;73.390;2023-08-01T07:44:31;78324.50;;;28.83;66.76
63665;BME280;49820;33.966;73.390;2023-08-01T07:47:00;78326.28;;;28.00;84.12
63665;BME280;49820;33.966;73.390;2023-08-01T07:49:30;78327.06;;;27.84;76.59
63665;BME280;49820;33.966;73.390;2023-08-01T07:51:59;78314.97;;;28.28;69.06
63665;BME280;49820;33.966;73.390;2023-08-01T07:54:29;78283.63;;;26.89;74.08
63665;BME280;49820;33.966;73.390;2023-08-01T07:56:58;78337.81;;;28.42;77.67
63665;BME280;49820;33.966;73.390;2023-08-01T07:59:27;78323.88;;;28.44;73.08
63665;BME280;49820;33.966;73.390;2023-08-01T08:01:57;78316.94;;;27.73;81.05
63665;BME280;49820;33.966;73.390;2023-08-01T08:04:27;78327.56;;;28.49;82.50
63665;BME280;49820;33.966;73.390;2023-08-01T08:06:57;78300.31;;;29.08;73.06
63665;BME280;49820;33.966;73.390;2023-08-01T08:09:28;78332.06;;;29.89;79.45
63665;BME280;49820;33.966;73.390;2023-08-01T08:11:57;78304.63;;;29.81;75.41
63665;BME280;49820;33.966;73.390;2023-08-01T08:14:26;78320.97;;;30.42;66.18
63665;BME280;49820;33.966;73.390;2023-08-01T08:16:55;78289.44;;;29.51;68.28
63665;BME280;49820;33.966;73.390;2023-08-01T08:19:24;78309.75;;;29.33;70.30
63665;BME280;49820;33.966;73.390;2023-08-01T08:21:58;78303.06;;;29.23;67.97
63665;BME280;49820;33.966;73.390;2023-08-01T08:24:27;78293.63;;;28.83;69.82
63665;BME280;49820;33.966;73.390;2023-08-01T08:26:56;78317.50;;;28.69;73.67
63665;BME280;49820;33.966;73.390;2023-08-01T08:29:25;78316.09;;;28.86;70.42
63665;BME280;49820;33.966;73.390;2023-08-01T08:31:55;78299.38;;;29.03;75.38
63665;BME280;49820;33.966;73.390;2023-08-01T08:34:24;78322.44;;;28.60;69.07
63665;BME280;49820;33.966;73.390;2023-08-01T08:36:53;78312.84;;;27.57;78.88
63665;BME280;49820;33.966;73.390;2023-08-01T08:39:22;78312.72;;;29.68;90.97
63665;BME280;49820;33.966;73.390;2023-08-01T08:41:52;78302.38;;;28.62;73.18
63665;BME280;49820;33.966;73.390;2023-08-01T08:44:21;78304.75;;;27.64;86.04
63665;BME280;49820;33.966;73.390;2023-08-01T08:46:53;78310.31;;;27.79;81.68
63665;BME280;49820;33.966;73.390;2023-08-01T08:49:24;78315.16;;;28.96;84.72
63665;BME280;49820;33.966;73.390;2023-08-01T08:51:55;78321.75;;;30.33;70.11
63665;BME280;49820;33.966;73.390;2023-08-01T08:54:25;78311.97;;;29.76;72.56
63665;BME280;49820;33.966;73.390;2023-08-01T08:56:54;78289.44;;;30.04;73.17
63665;BME280;49820;33.966;73.390;2023-08-01T08:59:25;78293.41;;;29.98;66.18
63665;BME280;49820;33.966;73.390;2023-08-01T09:01:56;78278.38;;;29.45;71.07
63665;BME280;49820;33.966;73.390;2023-08-01T09:04:24;78306.25;;;30.52;72.83
63665;BME280;49820;33.966;73.390;2023-08-01T09:07:00;78287.44;;;30.17;68.50
63665;BME280;49820;33.966;73.390;2023-08-01T09:09:31;78311.66;;;29.65;68.88
63665;BME280;49820;33.966;73.390;2023-08-01T09:12:01;78297.56;;;29.38;79.31
63665;BME280;49820;33.966;73.390;2023-08-01T09:14:30;78300.16;;;28.40;77.02
63665;BME280;49820;33.966;73.390;2023-08-01T09:17:08;78272.84;;;27.99;89.18
63665;BME280;49820;33.966;73.390;2023-08-01T09:19:39;78271.03;;;29.50;80.49
63665;BME280;49820;33.966;73.390;2023-08-01T09:22:22;78285.53;;;30.16;78.03
63665;BME280;49820;33.966;73.390;2023-08-01T09:24:59;78286.13;;;29.73;69.32
63665;BME280;49820;33.966;73.390;2023-08-01T09:27:32;78290.09;;;29.52;72.42
63665;BME280;49820;33.966;73.390;2023-08-01T09:30:07;78284.63;;;28.76;79.67
63665;BME280;49820;33.966;73.390;2023-08-01T09:32:36;78276.97;;;28.46;83.35
63665;BME280;49820;33.966;73.390;2023-08-01T09:35:05;78276.16;;;29.91;86.62
63665;BME280;49820;33.966;73.390;2023-08-01T09:37:44;78292.50;;;29.56;78.08
63665;BME280;49820;33.966;73.390;2023-08-01T09:40:14;78288.03;;;28.76;78.33
63665;BME280;49820;33.966;73.390;2023-08-01T09:42:48;78268.22;;;28.13;89.50
63665;BME280;49820;33.966;73.390;2023-08-01T09:45:18;78288.63;;;27.84;87.82
63665;BME280;49820;33.966;73.390;2023-08-01T09:47:47;78286.81;;;29.12;84.72
63665;BME280;49820;33.966;73.390;2023-08-01T09:50:21;78285.47;;;29.72;80.63
63665;BME280;49820;33.966;73.390;2023-08-01T09:52:51;78277.09;;;27.10;94.17
63665;BME280;49820;33.966;73.390;2023-08-01T09:55:33;78285.81;;;27.92;96.39
63665;BME280;49820;33.966;73.390;2023-08-01T09:58:04;78274.13;;;28.39;100.00
63665;BME280;49820;33.966;73.390;2023-08-01T10:00:35;78272.75;;;28.32;90.01
63665;BME280;49820;33.966;73.390;2023-08-01T10:03:05;78280.09;;;28.03;89.80
63665;BME280;49820;33.966;73.390;2023-08-01T10:05:36;78267.78;;;27.63;90.51
63665;BME280;49820;33.966;73.390;2023-08-01T10:08:08;78255.25;;;28.20;87.16
63665;BME280;49820;33.966;73.390;2023-08-01T10:10:39;78284.19;;;27.95;91.83
63665;BME280;49820;33.966;73.390;2023-08-01T10:13:14;78275.41;;;28.01;89.70
63665;BME280;49820;33.966;73.390;2023-08-01T10:15:44;78259.09;;;28.23;86.92
63665;BME280;49820;33.966;73.390;2023-08-01T10:18:13;78278.41;;;27.67;91.66
63665;BME280;49820;33.966;73.390;2023-08-01T10:20:44;78276.81;;;27.85;100.00
63665;BME280;49820;33.966;73.390;2023-08-01T10:23:35;78283.13;;;27.60;93.31
63665;BME280;49820;33.966;73.390;2023-08-01T10:26:07;78280.50;;;27.90;91.23
63665;BME280;49820;33.966;73.390;2023-08-01T10:28:41;78258.78;;;27.80;97.05
63665;BME280;49820;33.966;73.390;2023-08-01T10:31:15;78281.53;;;26.89;97.64
63665;BME280;49820;33.966;73.390;2023-08-01T10:34:12;78264.09;;;27.58;100.00
63665;BME280;49820;33.966;73.390;2023-08-01T10:37:01;78274.06;;;28.09;94.20
63665;BME280;49820;33.966;73.390;2023-08-01T10:39:41;78258.03;;;28.66;88.71
63665;BME280;49820;33.966;73.390;2023-08-01T10:42:10;78244.38;;;28.72;85.69
63665;BME280;49820;33.966;73.390;2023-08-01T10:44:46;78267.00;;;28.58;97.42
63665;BME280;49820;33.966;73.390;2023-08-01T10:47:25;78263.00;;;27.79;93.13
63665;BME280;49820;33.966;73.390;2023-08-01T10:49:56;78258.44;;;27.04;99.13
63665;BME280;49820;33.966;73.390;2023-08-01T10:52:26;78274.00;;;26.23;100.00
63665;BME280;49820;33.966;73.390;2023-08-01T10:55:05;78264.38;;;25.98;100.00
63665;BME280;49820;33.966;73.390;2023-08-01T10:57:36;78225.63;;;25.44;100.00
63665;BME280;49820;33.966;73.390;2023-08-01T11:00:06;78237.34;;;25.94;100.00
63665;BME280;49820;33.966;73.390;2023-08-01T11:02:38;78246.94;;;26.69;100.00
63665;BME280;49820;33.966;73.390;2023-08-01T11:05:07;78241.81;;;26.15;100.00
63665;BME280;49820;33.966;73.390;2023-08-01T11:07:36;78253.44;;;27.06;100.00
63665;BME280;49820;33.966;73.390;2023-08-01T11:10:12;78271.41;;;26.79;100.00
63665;BME280;49820;33.966;73.390;2023-08-01T11:12:43;78258.63;;;25.76;100.00
63665;BME280;49820;33.966;73.390;2023-08-01T11:18:00;78184.13;;;25.50;100.00
63665;BME280;49820;33.966;73.390;2023-08-01T11:20:30;78221.28;;;25.56;100.00
63665;BME280;49820;33.966;73.390;2023-08-01T11:23:00;78227.94;;;26.17;100.00
63665;BME280;49820;33.966;73.390;2023-08-01T11:25:34;78240.84;;;26.18;100.00
63665;BME280;49820;33.966;73.390;2023-08-01T11:28:10;78238.59;;;26.12;100.00
63665;BME280;49820;33.966;73.390;2023-08-01T11:30:39;78251.22;;;25.32;100.00
63665;BME280;49820;33.966;73.390;2023-08-01T11:35:53;78248.38;;;24.63;100.00
63665;BME280;49820;33.966;73.390;2023-08-01T11:38:33;78220.28;;;24.19;100.00
63665;BME280;49820;33.966;73.390;2023-08-01T11:41:04;78235.16;;;24.57;100.00
63665;BME280;49820;33.966;73.390;2023-08-01T11:43:43;78250.72;;;25.38;100.00
63665;BME280;49820;33.966;73.390;2023-08-01T11:46:13;78250.28;;;25.70;100.00
63665;BME280;49820;33.966;73.390;2023-08-01T11:48:46;78231.59;;;25.64;100.00
63665;BME280;49820;33.966;73.390;2023-08-01T11:51:16;78247.34;;;25.03;100.00
63665;BME280;49820;33.966;73.390;2023-08-01T11:53:45;78225.72;;;24.19;100.00
63665;BME280;49820;33.966;73.390;2023-08-01T11:56:23;78254.72;;;24.42;100.00
63665;BME280;49820;33.966;73.390;2023-08-01T11:58:52;78249.84;;;24.70;100.00
63665;BME280;49820;33.966;73.390;2023-08-01T12:01:24;78257.50;;;24.59;100.00
63665;BME280;49820;33.966;73.390;2023-08-01T12:03:54;78244.22;;;24.90;100.00
63665;BME280;49820;33.966;73.390;2023-08-01T12:06:25;78240.41;;;24.33;100.00
63665;BME280;49820;33.966;73.390;2023-08-01T12:08:54;78232.16;;;24.16;100.00
63665;BME280;49820;33.966;73.390;2023-08-01T12:11:34;78252.34;;;24.10;100.00
63665;BME280;49820;33.966;73.390;2023-08-01T12:14:07;78256.16;;;24.32;100.00
63665;BME280;49820;33.966;73.390;2023-08-01T12:16:41;78244.28;;;24.00;100.00
63665;BME280;49820;33.966;73.390;2023-08-01T12:19:20;78253.66;;;23.75;100.00
63665;BME280;49820;33.966;73.390;2023-08-01T12:21:49;78214.28;;;23.44;100.00
63665;BME280;49820;33.966;73.390;2023-08-01T12:24:18;78236.31;;;24.15;100.00
63665;BME280;49820;33.966;73.390;2023-08-01T12:26:53;78220.28;;;23.74;100.00
63665;BME280;49820;33.966;73.390;2023-08-01T12:29:26;78234.66;;;23.64;100.00
63665;BME280;49820;33.966;73.390;2023-08-01T12:31:55;78236.06;;;23.35;100.00
63665;BME280;49820;33.966;73.390;2023-08-01T12:34:24;78246.50;;;23.13;100.00
63665;BME280;49820;33.966;73.390;2023-08-01T12:36:53;78246.59;;;22.83;100.00
63665;BME280;49820;33.966;73.390;2023-08-01T12:39:22;78251.03;;;22.78;100.00
63665;BME280;49820;33.966;73.390;2023-08-01T12:41:54;78259.75;;;22.70;100.00
63665;BME280;49820;33.966;73.390;2023-08-01T12:44:23;78235.53;;;22.47;100.00
63665;BME280;49820;33.966;73.390;2023-08-01T12:46:54;78262.19;;;22.55;100.00
63665;BME280;49820;33.966;73.390;2023-08-01T12:49:23;78243.78;;;22.36;100.00
63665;BME280;49820;33.966;73.390;2023-08-01T12:51:54;78257.00;;;22.32;100.00
63665;BME280;49820;33.966;73.390;2023-08-01T12:54:25;78241.56;;;22.09;100.00
63665;BME280;49820;33.966;73.390;2023-08-01T12:56:54;78254.31;;;21.91;100.00
63665;BME280;49820;33.966;73.390;2023-08-01T12:59:26;78212.47;;;21.67;100.00
63665;BME280;49820;33.966;73.390;2023-08-01T13:01:56;78245.19;;;21.76;100.00
63665;BME280;49820;33.966;73.390;2023-08-01T13:04:24;78256.63;;;21.67;100.00
63665;BME280;49820;33.966;73.390;2023-08-01T13:06:54;78238.69;;;21.41;100.00
63665;BME280;49820;33.966;73.390;2023-08-01T13:09:23;78247.66;;;21.39;100.00
63665;BME280;49820;33.966;73.390;2023-08-01T13:11:52;78249.44;;;21.43;100.00
63665;BME280;49820;33.966;73.390;2023-08-01T13:14:24;78264.72;;;21.38;100.00
63665;BME280;49820;33.966;73.390;2023-08-01T13:16:53;78252.31;;;21.30;100.00
63665;BME280;49820;33.966;73.390;2023-08-01T13:19:23;78247.69;;;21.18;100.00
63665;BME280;49820;33.966;73.390;2023-08-01T13:21:52;78253.38;;;21.14;100.00
63665;BME280;49820;33.966;73.390;2023-08-01T13:24:21;78234.25;;;20.94;100.00
63665;BME280;49820;33.966;73.390;2023-08-01T13:26:50;78246.00;;;21.02;100.00
63665;BME280;49820;33.966;73.390;2023-08-01T13:29:20;78250.41;;;21.07;100.00
63665;BME280;49820;33.966;73.390;2023-08-01T13:31:49;78212.16;;;20.79;100.00
63665;BME280;49820;33.966;73.390;2023-08-01T13:34:18;78245.75;;;20.95;100.00
63665;BME280;49820;33.966;73.390;2023-08-01T13:36:49;78226.00;;;20.75;100.00
63665;BME280;49820;33.966;73.390;2023-08-01T13:39:18;78238.25;;;20.85;100.00
63665;BME280;49820;33.966;73.390;2023-08-01T13:41:47;78233.22;;;20.79;100.00
63665;BME280;49820;33.966;73.390;2023-08-01T13:44:16;78236.06;;;20.77;100.00
63665;BME280;49820;33.966;73.390;2023-08-01T13:46:45;78243.97;;;20.81;100.00
63665;BME280;49820;33.966;73.390;2023-08-01T13:49:15;78237.25;;;20.69;100.00
63665;BME280;49820;33.966;73.390;2023-08-01T13:51:44;78241.13;;;20.62;100.00
63665;BME280;49820;33.966;73.390;2023-08-01T13:54:14;78227.19;;;20.46;100.00
63665;BME280;49820;33.966;73.390;2023-08-01T13:56:43;78244.47;;;20.51;100.00
63665;BME280;49820;33.966;73.390;2023-08-01T13:59:13;78240.88;;;20.44;100.00
63665;BME280;49820;33.966;73.390;2023-08-01T14:01:42;78233.25;;;20.36;100.00
63665;BME280;49820;33.966;73.390;2023-08-01T14:04:11;78239.47;;;20.35;100.00
63665;BME280;49820;33.966;73.390;2023-08-01T14:06:42;78235.03;;;20.18;100.00
63665;BME280;49820;33.966;73.390;2023-08-01T14:09:11;78249.22;;;20.19;100.00
63665;BME280;49820;33.966;73.390;2023-08-01T14:11:43;78221.28;;;19.89;100.00
63665;BME280;49820;33.966;73.390;2023-08-01T14:14:12;78215.72;;;19.80;100.00
63665;BME280;49820;33.966;73.390;2023-08-01T14:16:44;78217.41;;;19.75;100.00
63665;BME280;49820;33.966;73.390;2023-08-01T14:19:13;78234.19;;;19.88;100.00
63665;BME280;49820;33.966;73.390;2023-08-01T14:21:42;78245.31;;;20.05;100.00
63665;BME280;49820;33.966;73.390;2023-08-01T14:24:11;78249.19;;;19.98;100.00
63665;BME280;49820;33.966;73.390;2023-08-01T14:26:40;78247.88;;;19.86;100.00
63665;BME280;49820;33.966;73.390;2023-08-01T14:29:10;78261.72;;;19.93;100.00
63665;BME280;49820;33.966;73.390;2023-08-01T14:31:39;78244.38;;;19.88;100.00
63665;BME280;49820;33.966;73.390;2023-08-01T14:34:08;78250.47;;;19.88;100.00
63665;BME280;49820;33.966;73.390;2023-08-01T14:36:37;78243.53;;;19.57;100.00
63665;BME280;49820;33.966;73.390;2023-08-01T14:39:09;78263.06;;;19.70;100.00
63665;BME280;49820;33.966;73.390;2023-08-01T14:41:50;78262.44;;;19.70;100.00
63665;BME280;49820;33.966;73.390;2023-08-01T14:44:22;78252.09;;;19.72;100.00
63665;BME280;49820;33.966;73.390;2023-08-01T14:46:52;78272.63;;;19.80;100.00
63665;BME280;49820;33.966;73.390;2023-08-01T14:49:22;78272.75;;;19.67;100.00
